Time;durP1;ratioP1;P1;durP2;ratioP2;P2;SDS_P1;SDS_P2;PMS_P1;PMS_P2;Temp;Humidity;BMP_temperature;BMP_pressure;BME280_temperature;BME280_humidity;BME280_pressure;Samples;Min_cycle;Max_cycle;Signal;HPM_P1;HPM_P2
2023/04/21 00:01:16;;;;;;;1.40;1.30;;;;;;;9.68;100.00;99830.66;6125253;23;20021;-94
2023/04/21 00:03:42;;;;;;;5.57;2.20;;;;;;;9.72;100.00;99856.28;6101077;23;20021;-94
2023/04/21 00:06:08;;;;;;;0.13;0.13;;;;;;;9.38;100.00;99810.47;6125044;23;20040;-93
2023/04/21 00:08:39;;;;;;;1.02;0.70;;;;;;;9.61;100.00;99853.78;6150287;23;20045;-95
2023/04/21 00:11:08;;;;;;;0.47;0.47;;;;;;;9.30;100.00;99811.84;6125083;23;20445;-94
2023/04/21 00:13:34;;;;;;;1.75;0.90;;;;;;;9.34;100.00;99831.91;6126153;23;20499;-94
2023/04/21 00:16:01;;;;;;;0.68;0.68;;;;;;;9.43;100.00;99853.44;6124373;23;20013;-94
2023/04/21 00:18:27;;;;;;;1.10;1.00;;;;;;;9.20;100.00;99810.13;6100724;23;20017;-95
2023/04/21 00:20:52;;;;;;;1.38;1.27;;;;;;;9.22;100.00;99818.78;6077519;23;20059;-93
2023/04/21 00:23:18;;;;;;;0.40;0.40;;;;;;;9.34;100.00;99854.06;6100186;23;20013;-94
2023/04/21 00:25:44;;;;;;;2.65;1.67;;;;;;;9.05;100.00;99800.63;6101184;23;20017;-94
2023/04/21 00:28:09;;;;;;;1.17;0.73;;;;;;;9.32;100.00;99834.34;6100233;23;20442;-94
2023/04/21 00:30:36;;;;;;;3.80;1.95;;;;;;;9.18;100.00;99809.78;6124447;23;20051;-95
2023/04/21 00:33:03;;;;;;;0.63;0.63;;;;;;;9.21;100.00;99800.63;6100989;23;20368;-94
2023/04/21 00:35:29;;;;;;;0.95;0.95;;;;;;;9.12;100.00;99786.63;6124300;23;20017;-94
2023/04/21 00:37:55;;;;;;;2.88;2.03;;;;;;;9.18;100.00;99784.13;6100727;23;20010;-94
2023/04/21 00:40:20;;;;;;;1.42;1.00;;;;;;;9.38;100.00;99803.38;6099820;23;20010;-94
2023/04/21 00:42:46;;;;;;;1.17;1.08;;;;;;;9.42;100.00;99804.06;6100888;23;20017;-94
2023/04/21 00:45:14;;;;;;;0.52;0.45;;;;;;;9.58;100.00;99818.69;6100382;23;20508;-94
2023/04/21 00:47:40;;;;;;;0.57;0.57;;;;;;;9.70;100.00;99836.56;6123675;23;20152;-94
2023/04/21 00:50:06;;;;;;;0.25;0.25;;;;;;;9.64;100.00;99828.00;6099945;23;20013;-95
2023/04/21 00:52:33;;;;;;;1.13;0.80;;;;;;;9.56;100.00;99820.31;6076376;23;20013;-94
2023/04/21 00:54:58;;;;;;;2.53;1.42;;;;;;;9.62;100.00;99829.66;6124832;23;20358;-92
2023/04/21 00:57:24;;;;;;;1.42;1.33;;;;;;;9.57;100.00;99816.31;6101120;23;20025;-95
2023/04/21 00:59:50;;;;;;;1.88;1.27;;;;;;;9.70;100.00;99831.03;6124045;23;20021;-94
2023/04/21 01:02:17;;;;;;;1.17;0.60;;;;;;;9.73;100.00;99841.22;6099901;23;20394;-94
2023/04/21 01:04:44;;;;;;;1.38;1.30;;;;;;;9.81;100.00;99842.59;6077225;23;20017;-95
2023/04/21 01:07:10;;;;;;;4.47;1.08;;;;;;;9.48;100.00;99785.72;6099759;23;20076;-95
2023/04/21 01:09:36;;;;;;;0.80;0.80;;;;;;;9.50;100.00;99777.75;6099384;23;20029;-95
2023/04/21 01:12:07;;;;;;;2.95;0.70;;;;;;;9.90;100.00;99839.97;6101272;23;20005;-95
2023/04/21 01:14:34;;;;;;;0.45;0.45;;;;;;;9.84;100.00;99827.84;6075383;23;20688;-94
2023/04/21 01:16:59;;;;;;;2.40;0.57;;;;;;;9.58;100.00;99823.44;6101439;23;20002;-94
2023/04/21 01:19:28;;;;;;;0.55;0.55;;;;;;;9.43;100.00;99811.16;6100009;23;20020;-94
2023/04/21 01:21:56;;;;;;;0.47;0.47;;;;;;;9.10;100.00;99794.56;6100436;23;20017;-95
2023/04/21 01:24:23;;;;;;;1.45;1.35;;;;;;;8.97;100.00;99779.88;6148182;23;20001;-94
2023/04/21 01:26:49;;;;;;;1.27;1.13;;;;;;;9.02;100.00;99790.41;6076039;23;20045;-95
2023/04/21 01:29:16;;;;;;;1.65;1.38;;;;;;;9.05;100.00;99814.47;6101353;23;20017;-95
2023/04/21 01:31:42;;;;;;;0.75;0.65;;;;;;;9.18;100.00;99829.16;6099116;23;20025;-94
2023/04/21 01:34:07;;;;;;;2.42;1.02;;;;;;;8.88;100.00;99788.00;6122994;23;20485;-94
2023/04/21 01:36:35;;;;;;;0.52;0.52;;;;;;;8.93;100.00;99795.78;6125250;23;20032;-93
2023/04/21 01:39:01;;;;;;;0.98;0.90;;;;;;;9.04;100.00;99812.91;6099975;23;20041;-94
2023/04/21 01:41:28;;;;;;;1.00;0.95;;;;;;;9.19;100.00;99829.94;6100228;23;20021;-94
2023/04/21 01:43:54;;;;;;;1.08;1.08;;;;;;;8.93;100.00;99779.19;6099551;23;20279;-94
2023/04/21 01:46:20;;;;;;;1.73;1.63;;;;;;;8.93;100.00;99784.72;6099525;23;20089;-94
2023/04/21 01:48:45;;;;;;;1.17;1.08;;;;;;;9.16;100.00;99826.06;6124880;23;20055;-94
2023/04/21 01:51:11;;;;;;;1.23;1.13;;;;;;;8.67;100.00;99766.38;6096548;23;20025;-94
2023/04/21 01:53:37;;;;;;;1.27;1.17;;;;;;;8.95;100.00;99809.97;6124220;23;20040;-94
2023/04/21 01:56:02;;;;;;;0.38;0.38;;;;;;;8.92;100.00;99816.34;6124438;23;20025;-93
2023/04/21 01:58:29;;;;;;;1.55;0.95;;;;;;;8.96;100.00;99830.09;6123726;23;20014;-94
2023/04/21 02:00:55;;;;;;;0.15;0.15;;;;;;;8.70;100.00;99793.16;6099851;23;20083;-94
2023/04/21 02:03:21;;;;;;;0.40;0.40;;;;;;;8.80;100.00;99808.75;6123466;23;20463;-94
2023/04/21 02:05:46;;;;;;;1.42;1.20;;;;;;;8.65;100.00;99797.25;6100376;23;20026;-93
2023/04/21 02:08:12;;;;;;;0.20;0.20;;;;;;;8.82;100.00;99820.13;6123086;23;20017;-94
2023/04/21 02:10:40;;;;;;;0.20;0.20;;;;;;;8.73;100.00;99808.91;6099971;23;20358;-94
2023/04/21 02:13:05;;;;;;;1.25;0.75;;;;;;;8.69;100.00;99797.16;6124690;23;20009;-94
2023/04/21 02:15:32;;;;;;;10.55;2.45;;;;;;;8.81;100.00;99808.31;6124663;23;20013;-94
2023/04/21 02:17:57;;;;;;;3.35;0.88;;;;;;;9.03;100.00;99827.94;6102501;23;20351;-94
2023/04/21 02:20:24;;;;;;;0.28;0.28;;;;;;;9.08;100.00;99810.06;6126167;23;20017;-94
2023/04/21 02:22:50;;;;;;;0.75;0.75;;;;;;;8.90;100.00;99785.56;6150421;23;20025;-94
2023/04/21 02:25:15;;;;;;;1.70;1.40;;;;;;;8.95;100.00;99787.03;6102176;23;20434;-94
2023/04/21 02:27:41;;;;;;;0.90;0.43;;;;;;;8.96;100.00;99794.91;6103201;23;20504;-93
2023/04/21 02:30:07;;;;;;;2.90;0.43;;;;;;;9.06;100.00;99810.47;6101812;23;20375;-94
2023/04/21 02:32:33;;;;;;;0.73;0.73;;;;;;;9.02;100.00;99804.25;6103117;23;20077;-93
2023/04/21 02:35:03;;;;;;;0.35;0.35;;;;;;;8.76;100.00;99774.84;6127709;23;20057;-94
2023/04/21 02:37:29;;;;;;;0.75;0.75;;;;;;;8.78;100.00;99789.00;6102306;23;20018;-94
2023/04/21 02:39:55;;;;;;;0.35;0.35;;;;;;;8.63;100.00;99777.53;6101314;23;20014;-95
2023/04/21 02:42:20;;;;;;;0.47;0.47;;;;;;;8.67;100.00;99810.63;6125558;23;20362;-94
2023/04/21 02:44:46;;;;;;;0.63;0.55;;;;;;;8.38;100.00;99783.59;6125686;23;20473;-95
2023/04/21 02:47:15;;;;;;;1.08;0.98;;;;;;;8.39;100.00;99800.97;6125629;23;20048;-94
2023/04/21 02:49:41;;;;;;;0.47;0.47;;;;;;;8.26;100.00;99806.34;6127145;23;20446;-94
2023/04/21 02:52:07;;;;;;;2.22;2.00;;;;;;;8.08;100.00;99788.56;6124401;23;20013;-93
2023/04/21 02:54:32;;;;;;;0.73;0.73;;;;;;;7.87;100.00;99767.69;6125413;23;20092;-94
2023/04/21 02:56:58;;;;;;;1.23;1.20;;;;;;;8.14;100.00;99806.19;6102267;23;20013;-94
2023/04/21 02:59:24;;;;;;;0.57;0.57;;;;;;;7.95;100.00;99785.69;6100900;23;20482;-94
2023/04/21 03:01:49;;;;;;;0.82;0.82;;;;;;;8.12;100.00;99819.66;6125475;23;20048;-94
2023/04/21 03:04:15;;;;;;;0.40;0.40;;;;;;;7.98;100.00;99801.38;6125391;23;20025;-95
2023/04/21 03:06:41;;;;;;;1.35;1.17;;;;;;;7.86;100.00;99786.25;6125451;23;20088;-94
2023/04/21 03:09:06;;;;;;;1.15;0.95;;;;;;;7.82;100.00;99785.53;6100631;23;20020;-93
2023/04/21 03:11:32;;;;;;;1.67;1.27;;;;;;;7.97;100.00;99811.66;6125146;23;20434;-94
2023/04/21 03:13:57;;;;;;;0.00;0.00;;;;;;;7.83;100.00;99791.84;6102308;23;20104;-94
2023/04/21 03:16:23;;;;;;;1.15;0.95;;;;;;;7.80;100.00;99787.94;6098958;23;20020;-94
2023/04/21 03:18:49;;;;;;;0.40;0.40;;;;;;;7.87;100.00;99792.53;6125215;23;20064;-94
2023/04/21 03:21:15;;;;;;;0.82;0.80;;;;;;;7.91;100.00;99805.09;6125528;23;20017;-93
2023/04/21 03:23:40;;;;;;;1.25;1.15;;;;;;;7.68;100.00;99785.03;6125384;23;19993;-94
2023/04/21 03:26:07;;;;;;;0.55;0.55;;;;;;;7.67;100.00;99800.81;6125381;23;20028;-94
2023/04/21 03:28:33;;;;;;;0.63;0.63;;;;;;;7.58;100.00;99792.31;6101465;23;20013;-95
2023/04/21 03:30:59;;;;;;;0.45;0.45;;;;;;;7.76;100.00;99831.41;6100034;23;20013;-94
2023/04/21 03:33:25;;;;;;;0.28;0.28;;;;;;;7.63;100.00;99810.34;6125485;23;20005;-93
2023/04/21 03:35:51;;;;;;;0.95;0.95;;;;;;;7.67;100.00;99820.13;6101175;23;20026;-94
2023/04/21 03:38:16;;;;;;;0.25;0.25;;;;;;;7.68;100.00;99818.16;6125045;23;20084;-94
2023/04/21 03:40:42;;;;;;;0.95;0.93;;;;;;;7.48;100.00;99809.84;6100961;23;20020;-94
2023/04/21 03:43:08;;;;;;;0.13;0.13;;;;;;;7.48;100.00;99827.16;6124826;23;20087;-94
2023/04/21 03:45:34;;;;;;;0.00;0.00;;;;;;;7.52;100.00;99826.34;6125118;23;20367;-93
2023/04/21 03:48:00;;;;;;;0.10;0.10;;;;;;;7.55;100.00;99831.78;6075755;23;20009;-94
2023/04/21 03:50:25;;;;;;;1.45;1.38;;;;;;;7.40;100.00;99809.16;6100531;23;20024;-94
2023/04/21 03:52:51;;;;;;;2.05;0.98;;;;;;;7.31;100.00;99808.97;6100147;23;20119;-93
2023/04/21 03:55:16;;;;;;;0.60;0.60;;;;;;;7.42;100.00;99831.63;6124774;23;20005;-93
2023/04/21 03:57:42;;;;;;;8.68;1.48;;;;;;;7.06;100.00;99785.72;6101543;23;20490;-93
2023/04/21 04:00:09;;;;;;;0.70;0.47;;;;;;;7.14;100.00;99793.47;6124331;23;20020;-94
2023/04/21 04:02:38;;;;;;;0.05;0.05;;;;;;;7.18;100.00;99808.00;6102434;23;20035;-93
2023/04/21 04:05:04;;;;;;;1.05;0.45;;;;;;;7.31;100.00;99828.25;6125478;23;20466;-94
2023/04/21 04:07:33;;;;;;;1.35;1.10;;;;;;;7.14;100.00;99800.97;6100679;23;20053;-94
2023/04/21 04:09:59;;;;;;;0.20;0.20;;;;;;;7.31;100.00;99833.78;6100754;23;20013;-92
2023/04/21 04:12:24;;;;;;;1.65;1.00;;;;;;;7.37;100.00;99832.09;6105979;23;20100;-93
2023/04/21 04:14:50;;;;;;;0.52;0.45;;;;;;;7.24;100.00;99822.84;6125251;23;20015;-93
2023/04/21 04:17:16;;;;;;;5.47;2.50;;;;;;;7.35;100.00;99842.78;6149832;23;20698;-95
2023/04/21 04:19:41;;;;;;;3.13;1.95;;;;;;;7.26;100.00;99825.97;6124957;23;20005;-93
2023/04/21 04:22:07;;;;;;;0.63;0.63;;;;;;;7.38;100.00;99833.66;6125079;23;20013;-94
2023/04/21 04:24:33;;;;;;;0.47;0.47;;;;;;;7.35;100.00;99828.19;6125534;23;20002;-93
2023/04/21 04:27:00;;;;;;;0.82;0.82;;;;;;;7.49;100.00;99828.72;6125516;23;20048;-92
2023/04/21 04:29:26;;;;;;;1.95;1.48;;;;;;;7.61;100.00;99834.84;6126179;23;20018;-93
2023/04/21 04:31:52;;;;;;;0.57;0.57;;;;;;;7.54;100.00;99813.66;6125876;23;20085;-94
2023/04/21 04:34:18;;;;;;;1.27;0.95;;;;;;;7.85;100.00;99845.44;6101343;23;20099;-92
2023/04/21 04:36:53;;;;;;;1.08;0.90;;;;;;;7.50;100.00;99780.63;6101729;23;20009;-94
2023/04/21 04:39:19;;;;;;;1.40;1.30;;;;;;;7.92;100.00;99850.06;6100766;23;20005;-93
2023/04/21 04:41:48;;;;;;;1.85;1.48;;;;;;;7.93;100.00;99857.91;6100524;23;20004;-93
2023/04/21 04:44:16;;;;;;;1.13;0.63;;;;;;;7.75;100.00;99834.59;6124294;23;20088;-92
2023/04/21 04:46:45;;;;;;;0.43;0.43;;;;;;;7.52;100.00;99820.81;6099957;23;20025;-90
2023/04/21 04:49:10;;;;;;;0.80;0.80;;;;;;;7.44;100.00;99804.38;6099245;23;20021;-92
2023/04/21 04:51:36;;;;;;;2.30;1.40;;;;;;;7.45;100.00;99819.72;6123469;23;20026;-91
2023/04/21 04:54:02;;;;;;;0.63;0.63;;;;;;;7.56;100.00;99821.53;6120369;23;20010;-91
2023/04/21 04:56:29;;;;;;;0.55;0.55;;;;;;;7.91;100.00;99854.78;6121420;23;20024;-91
2023/04/21 04:58:58;;;;;;;0.43;0.43;;;;;;;7.77;100.00;99824.66;6122594;23;20456;-91
2023/04/21 05:01:29;;;;;;;1.38;1.27;;;;;;;7.82;100.00;99804.06;6120150;23;20021;-92
2023/04/21 05:03:58;;;;;;;1.00;0.65;;;;;;;8.15;100.00;99830.66;6120957;23;20017;-91
2023/04/21 05:06:25;;;;;;;0.70;0.70;;;;;;;8.50;100.00;99867.06;6120243;23;20025;-92
2023/04/21 05:08:50;;;;;;;0.10;0.10;;;;;;;8.54;100.00;99860.25;6094108;23;20017;-91
2023/04/21 05:11:16;;;;;;;1.00;0.93;;;;;;;8.73;100.00;99869.75;6146517;23;20476;-91
2023/04/21 05:13:41;;;;;;;1.00;0.85;;;;;;;8.88;100.00;99859.91;6120589;23;20009;-92
2023/04/21 05:16:08;;;;;;;1.33;1.23;;;;;;;9.12;100.00;99869.63;6144846;23;20014;-92
2023/04/21 05:18:37;;;;;;;0.88;0.88;;;;;;;9.32;100.00;99873.09;6097052;23;20013;-93
2023/04/21 05:21:02;;;;;;;0.75;0.63;;;;;;;9.44;100.00;99857.78;6094021;23;20009;-93
2023/04/21 05:23:28;;;;;;;1.42;1.33;;;;;;;9.70;100.00;99864.25;6141171;23;20026;-91
2023/04/21 05:25:56;;;;;;;0.95;0.88;;;;;;;9.87;100.00;99856.69;6122679;23;20013;-93
2023/04/21 05:28:31;;;;;;;0.35;0.35;;;;;;;10.27;100.00;99880.91;6125365;23;20020;-91
2023/04/21 05:30:56;;;;;;;1.65;1.08;;;;;;;10.43;100.00;99868.22;6122108;23;20026;-92
2023/04/21 05:33:22;;;;;;;0.52;0.52;;;;;;;10.59;100.00;99868.16;6152075;23;20537;-94
2023/04/21 05:35:48;;;;;;;1.75;0.85;;;;;;;10.73;100.00;99857.41;6102766;23;20413;-92
2023/04/21 05:38:14;;;;;;;19.25;2.58;;;;;;;10.87;100.00;99856.22;6100359;23;20029;-93
2023/04/21 05:40:42;;;;;;;10.80;3.58;;;;;;;10.97;100.00;99849.53;6102802;23;20061;-94
2023/04/21 05:43:08;;;;;;;1.10;0.82;;;;;;;11.38;100.00;99878.38;6125317;23;20005;-92
2023/04/21 05:45:38;;;;;;;0.40;0.40;;;;;;;11.47;100.00;99850.72;6124714;23;20025;-91
2023/04/21 05:48:04;;;;;;;1.42;1.33;;;;;;;11.57;100.00;99869.78;6124875;23;20509;-91
2023/04/21 05:50:32;;;;;;;1.08;1.02;;;;;;;11.71;100.00;99874.09;6126072;23;20485;-92
2023/04/21 05:52:58;;;;;;;0.98;0.95;;;;;;;11.80;100.00;99882.56;6124799;23;20032;-92
2023/04/21 05:55:23;;;;;;;1.63;1.27;;;;;;;11.79;100.00;99874.66;6125288;23;20096;-91
2023/04/21 05:57:49;;;;;;;2.42;1.63;;;;;;;11.92;100.00;99873.41;6125950;23;20101;-91
2023/04/21 06:00:17;;;;;;;1.42;1.33;;;;;;;12.06;100.00;99878.47;6149471;23;20350;-93
2023/04/21 06:02:43;;;;;;;0.85;0.80;;;;;;;12.18;100.00;99887.97;6125410;23;20017;-91
2023/04/21 06:05:09;;;;;;;1.48;1.17;;;;;;;12.28;100.00;99849.91;6102110;23;20051;-93
2023/04/21 06:07:36;;;;;;;0.43;0.43;;;;;;;12.49;100.00;99857.47;6126342;23;20069;-91
2023/04/21 06:10:03;;;;;;;1.25;1.15;;;;;;;12.89;100.00;99875.00;6101778;23;20013;-92
2023/04/21 06:12:28;;;;;;;1.30;1.17;;;;;;;12.80;100.00;99840.78;6102226;23;20001;-92
2023/04/21 06:14:57;;;;;;;0.77;0.77;;;;;;;13.13;100.00;99852.22;6150526;23;20013;-91
2023/04/21 06:17:23;;;;;;;0.85;0.85;;;;;;;13.59;100.00;99890.13;6150403;23;20005;-91
2023/04/21 06:19:52;;;;;;;0.30;0.30;;;;;;;13.84;100.00;99889.09;6126340;23;20028;-91
2023/04/21 06:22:26;;;;;;;2.70;0.93;;;;;;;14.13;100.00;99880.28;6150757;23;20021;-91
2023/04/21 06:24:52;;;;;;;1.45;1.30;;;;;;;14.48;97.50;99884.31;6125261;23;20117;-91
2023/04/21 06:27:18;;;;;;;0.77;0.77;;;;;;;14.72;95.54;99885.19;6126224;23;20072;-91
2023/04/21 06:29:43;;;;;;;0.40;0.40;;;;;;;14.90;98.35;99868.41;6125892;23;20018;-91
2023/04/21 06:32:10;;;;;;;0.73;0.73;;;;;;;15.22;99.13;99882.84;6125526;23;20064;-92
2023/04/21 06:34:35;;;;;;;2.20;1.30;;;;;;;15.37;96.13;99883.72;6125734;23;20052;-92
2023/04/21 06:37:01;;;;;;;4.32;1.17;;;;;;;15.53;98.08;99879.78;6150904;23;20013;-91
2023/04/21 06:39:27;;;;;;;1.58;1.48;;;;;;;15.47;79.81;99890.81;6151807;23;20375;-91
2023/04/21 06:41:52;;;;;;;1.88;0.88;;;;;;;15.34;82.58;99857.50;6126134;23;20338;-92
2023/04/21 06:44:18;;;;;;;0.65;0.65;;;;;;;15.29;75.50;99860.16;6125898;23;20328;-92
2023/04/21 06:46:44;;;;;;;0.47;0.47;;;;;;;15.47;77.89;99876.06;6125918;23;20009;-93
2023/04/21 06:49:09;;;;;;;4.43;0.65;;;;;;;15.64;74.35;99869.63;6125811;23;20021;-92
2023/04/21 06:51:36;;;;;;;1.00;1.00;;;;;;;15.65;66.41;99876.00;6125529;23;20020;-92
2023/04/21 06:54:02;;;;;;;2.38;1.45;;;;;;;15.62;70.60;99872.09;6101281;23;20016;-92
2023/04/21 06:56:28;;;;;;;1.05;1.02;;;;;;;15.68;64.40;99884.19;6126499;23;20100;-93
2023/04/21 06:58:54;;;;;;;0.45;0.28;;;;;;;15.76;63.13;99856.66;6125944;23;20338;-92
2023/04/21 07:01:19;;;;;;;1.65;0.98;;;;;;;16.22;61.19;99890.63;6125598;23;20013;-92
2023/04/21 07:03:45;;;;;;;0.75;0.47;;;;;;;16.45;55.07;99898.22;6125477;23;20014;-92
2023/04/21 07:06:11;;;;;;;13.48;1.08;;;;;;;16.46;51.63;99893.41;6101822;23;20021;-91
2023/04/21 07:08:37;;;;;;;0.50;0.50;;;;;;;16.48;47.52;99899.28;6102044;23;20025;-92
2023/04/21 07:11:03;;;;;;;0.45;0.40;;;;;;;16.39;48.21;99888.94;6127034;23;20025;-92
2023/04/21 07:13:29;;;;;;;1.90;1.30;;;;;;;16.38;47.65;99898.56;6127502;23;20518;-92
2023/04/21 07:15:54;;;;;;;0.30;0.30;;;;;;;16.48;49.33;99902.06;6125764;23;20081;-92
2023/04/21 07:18:20;;;;;;;4.10;0.65;;;;;;;16.59;47.90;99897.47;6126215;23;20014;-93
2023/04/21 07:20:46;;;;;;;0.40;0.40;;;;;;;16.81;50.00;99890.72;6151317;23;20084;-92
2023/04/21 07:23:11;;;;;;;1.45;0.85;;;;;;;17.20;49.30;99883.72;6126381;23;20013;-92
2023/04/21 07:25:37;;;;;;;1.08;1.02;;;;;;;17.57;49.49;99904.47;6125791;23;20018;-93
2023/04/21 07:28:03;;;;;;;3.50;0.85;;;;;;;17.48;44.96;99870.13;6114361;23;20021;-92
2023/04/21 07:30:29;;;;;;;4.03;2.00;;;;;;;17.67;45.63;99903.06;6126456;23;20410;-91
2023/04/21 07:32:55;;;;;;;0.45;0.45;;;;;;;17.50;45.42;99896.44;6102116;23;20462;-93
2023/04/21 07:35:20;;;;;;;0.98;0.95;;;;;;;17.48;44.57;99898.94;6127257;23;20009;-90
2023/04/21 07:37:46;;;;;;;1.08;0.88;;;;;;;17.67;45.47;99905.88;6102646;23;20377;-92
2023/04/21 07:40:11;;;;;;;0.10;0.10;;;;;;;17.70;44.92;99904.13;6124640;23;20353;-92
2023/04/21 07:42:37;;;;;;;0.95;0.70;;;;;;;17.80;44.18;99905.53;6150474;23;20016;-91
2023/04/21 07:45:03;;;;;;;0.52;0.43;;;;;;;17.83;47.35;99890.53;6149840;23;20006;-93
2023/04/21 07:47:29;;;;;;;0.52;0.52;;;;;;;17.92;45.53;99889.63;6125629;23;20025;-92
2023/04/21 07:49:55;;;;;;;0.65;0.65;;;;;;;18.12;44.05;99918.44;6127408;23;20065;-91
2023/04/21 07:52:21;;;;;;;0.63;0.63;;;;;;;17.99;42.99;99892.03;6101586;23;20106;-93
2023/04/21 07:54:46;;;;;;;0.60;0.60;;;;;;;18.07;44.02;99898.75;6152654;23;20025;-92
2023/04/21 07:57:12;;;;;;;3.10;1.05;;;;;;;18.49;43.47;99918.63;6153164;23;20434;-92
2023/04/21 07:59:37;;;;;;;0.65;0.65;;;;;;;18.76;43.28;99919.47;6128325;23;20203;-92
2023/04/21 08:02:03;;;;;;;0.80;0.80;;;;;;;18.94;43.29;99919.88;6128349;23;20028;-93
2023/04/21 08:04:28;;;;;;;5.35;1.65;;;;;;;18.88;41.95;99898.63;6101362;23;20036;-91
2023/04/21 08:06:54;;;;;;;0.93;0.80;;;;;;;19.06;41.68;99912.31;6126397;23;20025;-92
2023/04/21 08:09:20;;;;;;;1.02;0.93;;;;;;;19.18;41.50;99919.56;6125500;23;20018;-92
2023/04/21 08:11:46;;;;;;;0.60;0.60;;;;;;;19.25;41.40;99910.66;6127278;23;20319;-91
2023/04/21 08:14:12;;;;;;;0.20;0.20;;;;;;;19.26;39.90;99917.84;6101811;23;20060;-92
2023/04/21 08:16:39;;;;;;;0.40;0.40;;;;;;;19.00;40.83;99889.00;6101432;23;20411;-92
2023/04/21 08:19:05;;;;;;;0.32;0.25;;;;;;;19.27;41.99;99925.00;6126123;23;20473;-92
2023/04/21 08:21:32;;;;;;;1.65;1.55;;;;;;;19.11;42.00;99894.72;6149528;23;20014;-93
2023/04/21 08:23:58;;;;;;;1.33;0.90;;;;;;;19.48;41.61;99918.03;6125070;23;20017;-92
2023/04/21 08:26:24;;;;;;;0.17;0.17;;;;;;;19.61;40.30;99897.16;6100409;23;20434;-92
2023/04/21 08:28:50;;;;;;;0.57;0.57;;;;;;;19.79;38.97;99907.97;6125033;23;20017;-93
2023/04/21 08:31:16;;;;;;;2.47;1.58;;;;;;;19.56;37.90;99918.34;6124650;23;20017;-93
2023/04/21 08:33:42;;;;;;;0.40;0.40;;;;;;;19.30;38.17;99890.25;6124515;23;20017;-92
2023/04/21 08:36:09;;;;;;;0.63;0.55;;;;;;;19.40;37.91;99905.69;6100578;23;20012;-91
2023/04/21 08:38:35;;;;;;;6.18;1.23;;;;;;;18.99;38.07;99893.09;6124886;23;20130;-91
2023/04/21 08:41:02;;;;;;;4.40;0.60;;;;;;;19.04;39.08;99906.44;6125209;23;20041;-92
2023/04/21 08:43:28;;;;;;;1.33;1.15;;;;;;;19.26;38.30;99900.97;6099168;23;20017;-92
2023/04/21 08:45:54;;;;;;;0.38;0.35;;;;;;;19.13;39.54;99889.34;6124522;23;20446;-93
2023/04/21 08:48:22;;;;;;;1.27;1.17;;;;;;;19.12;37.33;99904.72;6151446;23;20014;-91
2023/04/21 08:50:49;;;;;;;0.70;0.68;;;;;;;18.89;39.04;99886.09;6126035;23;20522;-92
2023/04/21 08:53:16;;;;;;;0.30;0.30;;;;;;;18.94;39.54;99893.81;6124417;23;20353;-92
2023/04/21 08:55:42;;;;;;;0.93;0.70;;;;;;;18.98;38.15;99900.75;6124701;23;20009;-92
2023/04/21 08:58:08;;;;;;;0.60;0.60;;;;;;;19.10;39.33;99899.56;6125703;23;20010;-93
2023/04/21 09:00:37;;;;;;;0.28;0.28;;;;;;;19.36;39.24;99888.28;6148860;23;20020;-91
2023/04/21 09:03:04;;;;;;;1.52;1.17;;;;;;;19.39;37.95;99873.19;6101174;23;20346;-93
2023/04/21 09:05:31;;;;;;;1.08;0.77;;;;;;;19.77;37.36;99888.03;6127763;23;20092;-92
2023/04/21 09:08:08;;;;;;;0.28;0.28;;;;;;;19.50;37.71;99887.34;6126143;23;20017;-92
2023/04/21 09:10:45;;;;;;;2.58;0.98;;;;;;;19.60;37.25;99895.59;6124910;23;20017;-93
2023/04/21 09:13:11;;;;;;;0.60;0.60;;;;;;;19.42;37.27;99889.09;6101087;23;20023;-93
2023/04/21 09:15:40;;;;;;;0.30;0.30;;;;;;;19.21;37.68;99865.13;6124528;23;20426;-93
2023/04/21 09:18:13;;;;;;;0.60;0.60;;;;;;;19.49;37.64;99883.00;6124666;23;20096;-94
2023/04/21 09:20:39;;;;;;;0.60;0.60;;;;;;;19.61;37.01;99888.72;6100228;23;20510;-92
2023/04/21 09:23:05;;;;;;;1.63;0.98;;;;;;;19.60;37.30;99873.09;6125313;23;20053;-92
2023/04/21 09:25:33;;;;;;;1.17;1.00;;;;;;;19.66;36.84;99865.44;6124587;23;20017;-93
2023/04/21 09:27:59;;;;;;;0.20;0.20;;;;;;;20.02;36.45;99884.28;6150692;23;20053;-93
2023/04/21 09:30:25;;;;;;;0.65;0.65;;;;;;;20.24;35.40;99881.56;6099782;23;20478;-92
2023/04/21 09:32:55;;;;;;;0.30;0.30;;;;;;;20.03;35.52;99872.53;6125313;23;20398;-93
2023/04/21 09:35:20;;;;;;;0.80;0.60;;;;;;;19.99;35.70;99882.50;6124302;23;20018;-93
2023/04/21 09:37:46;;;;;;;3.83;1.20;;;;;;;19.82;37.05;99850.69;6100366;23;20088;-94
2023/04/21 09:40:14;;;;;;;0.85;0.85;;;;;;;20.15;36.49;99839.53;6124521;23;20500;-92
2023/04/21 09:42:40;;;;;;;0.70;0.70;;;;;;;20.34;35.29;99866.00;6124984;23;20006;-93
2023/04/21 09:45:09;;;;;;;0.52;0.52;;;;;;;20.35;35.24;99867.53;6124455;23;20005;-92
2023/04/21 09:47:40;;;;;;;5.68;1.65;;;;;;;20.20;36.31;99864.16;6125162;23;20091;-93
2023/04/21 09:50:08;;;;;;;7.32;1.00;;;;;;;20.08;35.56;99859.75;6100474;23;20096;-92
2023/04/21 09:52:37;;;;;;;0.88;0.85;;;;;;;20.08;36.12;99844.91;6077384;23;20165;-93
2023/04/21 09:55:03;;;;;;;0.90;0.68;;;;;;;19.55;36.04;99830.34;6124379;23;20022;-93
2023/04/21 09:57:31;;;;;;;1.10;0.85;;;;;;;19.64;36.54;99834.22;6077013;23;20493;-92
2023/04/21 10:00:15;;;;;;;2.65;2.05;;;;;;;20.01;36.08;99857.44;6123709;23;20043;-92
2023/04/21 10:02:43;;;;;;;1.17;0.93;;;;;;;19.90;35.58;99863.00;6126205;23;20021;-93
2023/04/21 10:05:10;;;;;;;2.42;1.90;;;;;;;20.06;36.30;99848.22;6099230;23;20068;-92
2023/04/21 10:07:35;;;;;;;0.77;0.77;;;;;;;20.13;36.05;99852.59;6149245;23;20017;-92
2023/04/21 10:10:01;;;;;;;1.52;1.38;;;;;;;20.15;35.79;99838.78;6124248;23;20468;-93
2023/04/21 10:12:27;;;;;;;0.52;0.52;;;;;;;20.35;34.90;99839.38;6124517;23;20028;-93
2023/04/21 10:14:54;;;;;;;8.98;0.88;;;;;;;20.27;34.87;99832.66;6124142;23;20017;-93
2023/04/21 10:17:24;;;;;;;1.25;1.15;;;;;;;20.24;34.80;99847.78;6123721;23;20013;-92
2023/04/21 10:19:52;;;;;;;0.68;0.68;;;;;;;20.33;34.31;99846.81;6124388;23;20017;-93
2023/04/21 10:22:32;;;;;;;1.08;0.73;;;;;;;20.41;34.68;99831.72;6124409;23;20111;-94
2023/04/21 10:25:00;;;;;;;2.30;1.55;;;;;;;20.38;34.32;99824.25;6124119;23;20053;-92
2023/04/21 10:27:35;;;;;;;2.45;0.50;;;;;;;20.71;34.89;99842.47;6149073;23;20021;-94
2023/04/21 10:30:25;;;;;;;1.30;1.00;;;;;;;20.85;33.72;99830.19;6123911;23;20081;-93
2023/04/21 10:33:04;;;;;;;0.35;0.32;;;;;;;21.07;33.19;99832.25;6125397;23;20016;-94
2023/04/21 10:36:02;;;;;;;9.43;2.42;;;;;;;20.78;32.86;99827.91;6125492;23;20018;-93
2023/04/21 10:38:35;;;;;;;1.15;1.05;;;;;;;20.65;33.00;99822.00;6150856;23;20013;-93
2023/04/21 10:41:24;;;;;;;1.85;1.15;;;;;;;20.43;33.09;99822.72;6126400;23;20024;-93
2023/04/21 10:43:50;;;;;;;1.15;0.85;;;;;;;20.23;33.59;99814.47;6153197;23;20009;-93
2023/04/21 10:46:33;;;;;;;1.38;1.27;;;;;;;20.24;34.60;99813.19;6125088;23;20068;-93
2023/04/21 10:49:29;;;;;;;0.70;0.50;;;;;;;20.68;33.73;99815.31;6128781;23;20018;-92
2023/04/21 10:51:59;;;;;;;0.30;0.30;;;;;;;20.75;32.94;99817.63;6103852;23;20047;-93
2023/04/21 10:54:26;;;;;;;3.47;1.52;;;;;;;20.50;33.26;99815.84;6150523;23;20020;-92
2023/04/21 10:56:58;;;;;;;0.45;0.45;;;;;;;20.31;33.96;99795.81;6125922;23;20185;-92
2023/04/21 10:59:25;;;;;;;14.07;3.03;;;;;;;20.20;34.48;99788.09;6101099;23;20028;-93
2023/04/21 11:01:50;;;;;;;0.70;0.70;;;;;;;20.51;33.87;99814.53;6151258;23;20013;-93
2023/04/21 11:04:22;;;;;;;0.80;0.63;;;;;;;20.46;34.68;99780.22;6126949;23;20093;-92
2023/04/21 11:07:15;;;;;;;0.90;0.85;;;;;;;20.68;34.44;99778.69;6102556;23;20010;-93
2023/04/21 11:09:41;;;;;;;5.53;0.95;;;;;;;21.04;35.68;99800.19;6097182;23;20028;-92
2023/04/21 11:12:09;;;;;;;3.40;1.17;;;;;;;21.19;34.93;99805.59;6104306;23;20045;-94
2023/04/21 11:14:37;;;;;;;1.67;1.17;;;;;;;21.33;35.13;99799.66;6102824;23;20001;-92
2023/04/21 11:17:14;;;;;;;2.08;1.25;;;;;;;21.35;34.81;99780.13;6124956;23;20029;-92
2023/04/21 11:19:41;;;;;;;0.32;0.32;;;;;;;21.71;34.05;99795.16;6100589;23;20080;-94
2023/04/21 11:22:07;;;;;;;0.50;0.50;;;;;;;21.96;34.47;99796.09;6152276;23;20033;-94
2023/04/21 11:24:33;;;;;;;1.27;0.98;;;;;;;21.73;34.64;99755.13;6125319;23;20009;-93
2023/04/21 11:27:00;;;;;;;0.73;0.52;;;;;;;22.29;34.08;99793.06;6127927;23;20092;-93
2023/04/21 11:29:28;;;;;;;0.98;0.85;;;;;;;22.31;33.80;99793.31;6128187;23;20013;-92
2023/04/21 11:31:53;;;;;;;0.85;0.57;;;;;;;21.77;33.72;99752.78;6103200;23;20469;-93